Last 24 Hours

Pinon Hills

Hourly Data | America/Los_Angeles
as of 9/3/26 3:23 AM PDT
Date & Time Temp (°F) RH (%) Dew Pt (°F) Wind Dir (°) Wind Spd (mph) Wind Gust (mph) Pressure (mb) Barometric Press (inHg) Soil Temp (°F) Solar Rad (W/m2) Latest Rain (In) Daily Rain (In) Daily Min Temp (°F) Daily Max Temp (°F) Daily Max Wind (mph) Daily ETo (in)
9/3/26 - 0300 59.5 36 32.6 SE | 128 3.6 9.4 1,012.6 29.87 81.5 0 0.00 0.00 57.0 61.2 9.4 0.001
9/3/26 - 0200 58.8 37 32.8 SSE | 167 2.1 9.0 1,013.7 29.90 82.1 0 0.00 0.00 57.0 60.2 9.0 0.000
9/3/26 - 0100 60.8 31 30.3 SE | 143 2.7 7.0 1,013.3 29.89 82.7 0 0.00 0.00 56.7 80.7 28.3 0.241
9/3/26 - 0000 59.3 36 32.5 S | 172 3.1 6.8 1,014.0 29.91 83.2 0 0.00 0.00 56.7 80.7 28.3 0.240
9/2/26 - 2300 59.4 40 34.9 SSW | 206 1.8 7.7 1,014.2 29.92 83.7 0 0.00 0.00 56.7 80.7 28.3 0.240
9/2/26 - 2200 60.5 39 35.6 ESE | 104 2.7 6.6 1,013.9 29.91 84.0 0 0.00 0.00 56.7 80.7 28.3 0.240
9/2/26 - 2100 62.6 41 38.5 ESE | 120 2.9 6.1 1,013.0 29.88 84.2 0 0.00 0.00 56.7 80.7 28.3 0.240
9/2/26 - 2000 65.8 38 39.2 ESE | 115 3.3 10.7 1,011.8 29.85 84.1 3 0.00 0.00 56.7 80.7 28.3 0.239
9/2/26 - 1900 72.2 27 35.0 E | 98 5.3 15.1 1,009.6 29.78 83.7 125 0.00 0.00 56.7 80.7 28.3 0.239
9/2/26 - 1800 77.2 13 22.8 SW | 228 9.5 24.1 1,007.7 29.73 83.0 340 0.00 0.00 56.7 80.7 28.3 0.234
9/2/26 - 1700 78.7 12 21.7 SW | 230 12.4 28.3 1,007.1 29.71 82.1 553 0.00 0.00 56.7 80.7 28.3 0.219
9/2/26 - 1600 78.5 16 28.9 E | 101 5.9 21.0 1,007.8 29.73 81.0 727 0.00 0.00 56.7 80.7 23.9 0.196
9/2/26 - 1500 77.4 18 29.9 E | 81 6.8 15.8 1,008.8 29.76 80.0 850 0.00 0.00 56.7 78.4 23.9 0.173
9/2/26 - 1400 76.5 15 26.1 NE | 39 4.9 19.3 1,009.6 29.78 79.4 925 0.00 0.00 56.7 78.4 23.9 0.147
9/2/26 - 1300 74.9 16 25.2 NNE | 26 4.8 12.7 1,010.5 29.81 79.1 941 0.00 0.00 56.7 76.6 23.9 0.119
9/2/26 - 1200 72.7 18 27.0 NNE | 28 4.8 12.5 1,011.4 29.84 78.9 896 0.00 0.00 56.7 75.0 23.9 0.092
9/2/26 - 1100 71.8 19 26.9 NNE | 31 4.4 12.1 1,011.4 29.84 78.8 794 0.00 0.00 56.7 75.0 23.9 0.067
9/2/26 - 1000 72.9 12 16.3 SW | 220 4.2 17.1 1,010.6 29.81 78.8 636 0.00 0.00 56.7 75.0 23.9 0.045
9/2/26 - 0900 70.5 13 17.9 S | 186 4.8 16.7 1,011.4 29.84 79.1 430 0.00 0.00 56.7 72.2 23.9 0.027
9/2/26 - 0800 67.9 15 18.8 SSW | 210 5.9 23.9 1,011.8 29.85 79.6 207 0.00 0.00 56.7 69.3 23.9 0.014
9/2/26 - 0700 64.1 17 19.0 SE | 126 4.6 19.7 1,012.5 29.87 80.1 33 0.00 0.00 56.7 66.4 19.7 0.007
9/2/26 - 0600 61.4 21 21.2 SSE | 161 2.7 9.0 1,013.3 29.89 80.6 0 0.00 0.00 56.7 66.0 19.1 0.005
9/2/26 - 0500 61.5 22 22.4 W | 260 3.9 19.1 1,013.1 29.89 81.2 0 0.00 0.00 56.7 66.0 19.1 0.004
9/2/26 - 0400 59.4 25 23.5 E | 95 3.3 8.6 1,013.9 29.91 81.8 0 0.00 0.00 56.7 66.0 16.4 0.003
9/2/26 - 0300 60.7 24 23.4 E | 89 3.9 10.1 1,013.6 29.90 82.3 0 0.00 0.00 56.7 66.0 16.4 0.002
Max 78.7 41 39.2 - 12.4 28.3 1,014.2 29.92 84.2 941 0.00 0.00 57.0 80.7 28.3 0.241
Avg 67.4 24 27.3 - 4.6 13.9 1,011.6 29.84 81.4 298 0.00 - - - - -
Min 58.8 12 16.3 - 1.8 6.1 1,007.1 29.71 78.8 0 0.00 0.00 56.7 60.2 9.0 0.000
Total - - - - - - - - - - 0.00 - - - - -